Wheeler Observed Data For Previous 48 Hours

Caption
Day and Hour Reservoir Elevation (behind dam)* Tailwater Elevation (below dam)* Average Hourly Discharge*
4/17/2018 1 AM CDT 555.83 507.73 51,730
4/17/2018 2 AM CDT 555.89 507.54 50,985
4/17/2018 3 AM CDT 555.93 507.41 50,963
4/17/2018 4 AM CDT 555.99 507.35 51,043
4/17/2018 5 AM CDT 555.96 507.60 73,192
4/17/2018 6 AM CDT 555.97 507.99 92,301
4/17/2018 7 AM CDT 555.98 508.09 92,260
4/17/2018 8 AM CDT 555.97 508.10 92,306
4/17/2018 9 AM CDT 555.94 508.12 92,393
4/17/2018 10 AM CDT 555.95 508.22 92,433
4/17/2018 11 AM CDT 556.03 507.46 76,916
4/17/2018 12 PM CDT 556.02 507.37 74,286
4/17/2018 1 PM CDT 555.99 507.39 76,597
4/17/2018 2 PM CDT 555.99 507.44 76,620
4/17/2018 3 PM CDT 555.99 507.34 76,400
4/17/2018 4 PM CDT 555.98 507.34 76,839
4/17/2018 5 PM CDT 556.02 507.40 76,653
4/17/2018 6 PM CDT 556.05 507.39 76,653
4/17/2018 7 PM CDT 556.05 507.32 76,431
4/17/2018 8 PM CDT 556.11 507.32 76,381
4/17/2018 9 PM CDT 556.11 507.35 76,160
4/17/2018 10 PM CDT 556.12 507.30 76,137
4/17/2018 11 PM CDT 556.12 507.31 76,468
4/18/2018 12 AM CDT 556.12 507.31 76,865
4/18/2018 1 AM CDT 556.13 507.30 76,623
4/18/2018 2 AM CDT 556.13 507.28 76,645
4/18/2018 3 AM CDT 556.13 507.30 77,020
4/18/2018 4 AM CDT 556.14 507.27 76,718
4/18/2018 5 AM CDT 556.15 507.25 76,654
4/18/2018 6 AM CDT 556.15 507.23 76,712
4/18/2018 7 AM CDT 556.14 507.23 77,004
4/18/2018 8 AM CDT 556.14 507.24 76,811
4/18/2018 9 AM CDT 556.12 507.30 76,957
4/18/2018 10 AM CDT 556.06 507.21 77,117
4/18/2018 11 AM CDT 556.07 507.22 76,946
4/18/2018 12 PM CDT 556.04 507.23 76,780
4/18/2018 1 PM CDT 556.04 507.24 76,771
4/18/2018 2 PM CDT 556.03 507.22 76,770
4/18/2018 3 PM CDT 556.03 507.23 76,682
4/18/2018 4 PM CDT 556.02 507.26 76,624
4/18/2018 5 PM CDT 556.01 507.28 76,659
4/18/2018 6 PM CDT 556.01 507.29 76,413
4/18/2018 7 PM CDT 556.02 507.28 76,500
4/18/2018 8 PM CDT 556.06 507.31 76,646
4/18/2018 9 PM CDT 556.07 507.31 76,638
4/18/2018 10 PM CDT 556.08 507.31 76,434
4/18/2018 11 PM CDT 556.07 507.35 76,555
4/19/2018 12 AM CDT 556.04 507.38 76,698
4/19/2018 1 AM CDT 556.02 507.34 76,647
4/19/2018 2 AM CDT 555.98 507.31 76,530
4/19/2018 3 AM CDT 555.91 507.29 76,568
4/19/2018 4 AM CDT 555.94 507.27 76,468
4/19/2018 5 AM CDT 555.90 507.22 76,376
4/19/2018 6 AM CDT 555.89 507.20 76,517
4/19/2018 7 AM CDT 555.88 507.16 76,438
4/19/2018 8 AM CDT 555.87 507.14 76,416
4/19/2018 9 AM CDT 555.85 507.14 76,505
4/19/2018 10 AM CDT 555.84 507.11 76,497
4/19/2018 11 AM CDT 555.86 507.06 76,386
4/19/2018 12 PM CDT 555.85 507.07 76,617

Elevations are in feet above sea level. Discharges are in cubic feet per second and are reported at the end of the hour.